Time;durP1;ratioP1;P1;durP2;ratioP2;P2;SDS_P1;SDS_P2;PMS_P1;PMS_P2;Temp;Humidity;BMP_temperature;BMP_pressure;BME280_temperature;BME280_humidity;BME280_pressure;Samples;Min_cycle;Max_cycle;Signal;HPM_P1;HPM_P2
2024/04/08 00:01:02;;;;;;;6.57;4.32;;;;;;;10.50;100.00;100760.94;5051979;28;20400;-78
2024/04/08 00:03:27;;;;;;;5.72;4.25;;;;;;;11.08;100.00;100782.59;5046047;28;20117;-79
2024/04/08 00:05:53;;;;;;;7.25;5.30;;;;;;;10.75;100.00;100767.38;5046022;28;20021;-79
2024/04/08 00:08:18;;;;;;;7.43;4.85;;;;;;;10.45;100.00;100742.91;5051654;28;20044;-78
2024/04/08 00:10:44;;;;;;;7.25;4.70;;;;;;;10.95;100.00;100772.75;5051619;28;20032;-78
2024/04/08 00:13:09;;;;;;;7.25;5.30;;;;;;;10.82;100.00;100754.84;5058534;28;20021;-80
2024/04/08 00:15:34;;;;;;;7.65;4.43;;;;;;;10.73;100.00;100750.75;5054141;28;20462;-80
2024/04/08 00:18:00;;;;;;;6.75;4.57;;;;;;;10.97;100.00;100767.19;5039810;28;20490;-79
2024/04/08 00:20:25;;;;;;;6.45;3.85;;;;;;;10.38;100.00;100728.72;5040221;28;20030;-80
2024/04/08 00:22:51;;;;;;;6.40;4.03;;;;;;;10.23;100.00;100758.97;5043507;28;20112;-79
2024/04/08 00:25:17;;;;;;;6.28;3.88;;;;;;;9.90;100.00;100742.84;5049833;28;20394;-79
2024/04/08 00:27:43;;;;;;;9.25;3.97;;;;;;;9.59;100.00;100744.13;5050218;28;20535;-78
2024/04/08 00:30:08;;;;;;;7.63;3.92;;;;;;;9.49;100.00;100738.34;5050931;28;20504;-79
2024/04/08 00:32:34;;;;;;;6.43;4.00;;;;;;;10.29;100.00;100767.22;5048481;28;20025;-79
2024/04/08 00:34:59;;;;;;;7.57;4.55;;;;;;;10.56;100.00;100773.47;5040789;28;20440;-80
2024/04/08 00:37:25;;;;;;;6.43;4.10;;;;;;;10.25;100.00;100740.13;5047829;28;20033;-79
2024/04/08 00:39:50;;;;;;;7.63;5.15;;;;;;;10.26;100.00;100763.94;5050035;28;20039;-79
2024/04/08 00:42:16;;;;;;;9.93;6.50;;;;;;;10.11;100.00;100768.56;5050923;28;20025;-79
2024/04/08 00:44:42;;;;;;;15.43;8.48;;;;;;;9.83;100.00;100753.50;5039035;28;20421;-78
2024/04/08 00:47:10;;;;;;;14.35;8.68;;;;;;;9.56;100.00;100751.69;5031299;28;20029;-78
2024/04/08 00:49:35;;;;;;;12.35;8.05;;;;;;;9.96;100.00;100751.91;5047538;28;20083;-78
2024/04/08 00:52:01;;;;;;;12.18;7.45;;;;;;;10.00;100.00;100738.00;5038875;28;20053;-78
2024/04/08 00:54:28;;;;;;;9.68;7.10;;;;;;;10.07;100.00;100727.34;5048338;28;20033;-78
2024/04/08 00:56:56;;;;;;;9.68;5.70;;;;;;;10.21;100.00;100733.56;5049740;28;20116;-77
2024/04/08 00:59:22;;;;;;;9.63;6.37;;;;;;;9.61;100.00;100755.41;5051016;28;20036;-77
2024/04/08 01:01:49;;;;;;;17.50;9.38;;;;;;;9.43;100.00;100763.06;5050972;28;20290;-77
2024/04/08 01:04:15;;;;;;;23.25;12.65;;;;;;;10.03;100.00;100766.91;5050992;28;20160;-78
2024/04/08 01:06:41;;;;;;;12.73;6.53;;;;;;;10.16;100.00;100765.34;5051551;28;20499;-78
2024/04/08 01:09:08;;;;;;;10.10;4.88;;;;;;;10.04;100.00;100755.22;5051908;28;20017;-78
2024/04/08 01:11:34;;;;;;;7.88;4.70;;;;;;;9.83;100.00;100740.19;5040330;28;20037;-78
2024/04/08 01:14:00;;;;;;;8.88;4.65;;;;;;;9.98;100.00;100744.53;5056469;28;20481;-78
2024/04/08 01:16:25;;;;;;;6.50;4.50;;;;;;;9.96;100.00;100741.25;5080684;28;20072;-78
2024/04/08 01:18:50;;;;;;;8.43;5.25;;;;;;;9.90;100.00;100732.19;5079094;28;20051;-79
2024/04/08 01:21:16;;;;;;;6.95;4.22;;;;;;;10.11;100.00;100743.78;5080027;28;20035;-79
2024/04/08 01:23:42;;;;;;;7.50;4.25;;;;;;;10.05;100.00;100746.22;5073838;28;20481;-78
2024/04/08 01:26:07;;;;;;;5.57;3.47;;;;;;;10.11;100.00;100763.25;5060007;28;20476;-78
2024/04/08 01:28:33;;;;;;;5.95;3.50;;;;;;;9.80;100.00;100753.06;5059938;28;20033;-78
2024/04/08 01:31:02;;;;;;;7.07;4.10;;;;;;;9.72;100.00;100747.88;5062310;28;20114;-78
2024/04/08 01:33:27;;;;;;;7.38;5.18;;;;;;;9.90;100.00;100736.72;5061175;28;20035;-78
2024/04/08 01:36:11;;;;;;;7.43;5.25;;;;;;;9.82;100.00;100713.72;5061366;28;20104;-78
2024/04/08 01:38:39;;;;;;;7.53;5.68;;;;;;;9.74;100.00;100764.50;5059765;28;20021;-78
2024/04/08 01:41:05;;;;;;;9.15;5.75;;;;;;;9.85;100.00;100755.97;5060023;28;20033;-78
2024/04/08 01:43:30;;;;;;;8.57;5.82;;;;;;;9.93;100.00;100742.47;5065768;28;20031;-79
2024/04/08 01:45:56;;;;;;;7.75;5.57;;;;;;;10.09;100.00;100759.13;5060497;28;20053;-78
2024/04/08 01:48:21;;;;;;;8.27;5.10;;;;;;;9.99;100.00;100740.84;5059783;28;20021;-78
2024/04/08 01:50:46;;;;;;;9.27;5.47;;;;;;;10.06;100.00;100742.53;5057264;28;20025;-77
2024/04/08 01:53:12;;;;;;;8.05;4.63;;;;;;;9.92;100.00;100756.00;5056049;28;20049;-78
2024/04/08 01:55:37;;;;;;;6.18;3.92;;;;;;;9.89;100.00;100764.38;5068732;28;20033;-78
2024/04/08 01:58:03;;;;;;;9.02;4.80;;;;;;;9.87;100.00;100764.59;5053919;28;20477;-79
2024/04/08 02:00:29;;;;;;;6.93;3.80;;;;;;;9.04;100.00;100727.16;5036451;28;20067;-78
2024/04/08 02:02:54;;;;;;;5.93;4.22;;;;;;;9.52;100.00;100756.59;5031173;28;20506;-78
2024/04/08 02:05:19;;;;;;;7.22;4.32;;;;;;;9.65;100.00;100759.31;5053570;28;20044;-78
2024/04/08 02:07:45;;;;;;;7.18;3.95;;;;;;;9.32;100.00;100763.63;5047309;28;20026;-79
2024/04/08 02:10:11;;;;;;;6.50;3.55;;;;;;;8.67;100.00;100762.84;5036684;28;20112;-79
2024/04/08 02:12:37;;;;;;;7.45;4.00;;;;;;;9.40;100.00;100766.13;5050277;28;20064;-78
2024/04/08 02:15:03;;;;;;;7.18;4.53;;;;;;;9.61;100.00;100734.09;5048643;28;20060;-79
2024/04/08 02:17:29;;;;;;;7.05;4.70;;;;;;;9.59;100.00;100767.28;5050152;28;20559;-79
2024/04/08 02:19:54;;;;;;;6.15;4.28;;;;;;;8.69;100.00;100745.66;5049921;28;20029;-79
2024/04/08 02:22:20;;;;;;;5.50;4.10;;;;;;;8.49;100.00;100734.03;5050328;28;20032;-78
2024/04/08 02:24:45;;;;;;;7.30;4.50;;;;;;;8.87;100.00;100763.84;5048416;28;20159;-79
2024/04/08 02:27:11;;;;;;;9.98;5.55;;;;;;;9.00;100.00;100760.47;5050163;28;20025;-79
2024/04/08 02:29:36;;;;;;;14.20;7.15;;;;;;;8.89;100.00;100766.31;5049978;28;20486;-79
2024/04/08 02:32:02;;;;;;;15.95;6.03;;;;;;;8.96;100.00;100767.19;5050006;28;20021;-79
2024/04/08 02:34:27;;;;;;;11.88;5.78;;;;;;;8.62;100.00;100774.03;5048363;28;20405;-79
2024/04/08 02:36:52;;;;;;;30.90;7.32;;;;;;;8.72;100.00;100768.41;5053693;28;20057;-78
2024/04/08 02:39:18;;;;;;;34.08;6.10;;;;;;;8.81;100.00;100764.63;5053522;28;20025;-80
2024/04/08 02:41:43;;;;;;;9.65;5.97;;;;;;;8.68;100.00;100759.97;5052568;28;20028;-79
2024/04/08 02:44:09;;;;;;;8.48;4.90;;;;;;;8.62;100.00;100772.19;5053280;28;20516;-79
2024/04/08 02:46:34;;;;;;;7.97;4.47;;;;;;;8.29;100.00;100718.63;5053489;28;20033;-79
2024/04/08 02:49:00;;;;;;;13.88;4.78;;;;;;;8.26;100.00;100756.22;5048199;28;20029;-79
2024/04/08 02:51:25;;;;;;;8.35;5.15;;;;;;;8.44;100.00;100759.31;5053210;28;20116;-79
2024/04/08 02:53:51;;;;;;;10.32;5.93;;;;;;;8.45;100.00;100760.13;5052755;28;20025;-79
2024/04/08 02:56:16;;;;;;;8.48;5.60;;;;;;;8.56;100.00;100769.44;5052958;28;20041;-79
2024/04/08 02:58:45;;;;;;;8.77;5.88;;;;;;;8.38;100.00;100761.88;5047045;28;20033;-79
2024/04/08 03:01:10;;;;;;;9.23;5.72;;;;;;;7.89;100.00;100781.91;5035864;28;20029;-78
2024/04/08 03:03:37;;;;;;;7.57;5.38;;;;;;;8.01;100.00;100780.44;5033301;28;20038;-78
2024/04/08 03:06:09;;;;;;;9.82;5.47;;;;;;;8.34;100.00;100776.56;5050108;28;20413;-79
2024/04/08 03:08:35;;;;;;;8.07;5.53;;;;;;;8.56;100.00;100777.44;5053203;28;20033;-79
2024/04/08 03:11:02;;;;;;;9.40;5.93;;;;;;;8.49;100.00;100766.72;5052958;28;20028;-79
2024/04/08 03:13:28;;;;;;;7.95;5.18;;;;;;;7.49;100.00;100773.38;5052570;28;20036;-79
2024/04/08 03:15:54;;;;;;;6.03;3.75;;;;;;;7.16;100.00;100763.06;5051108;28;20017;-78
2024/04/08 03:18:19;;;;;;;5.43;3.63;;;;;;;7.61;100.00;100790.50;5050976;28;20090;-79
2024/04/08 03:21:00;;;;;;;6.50;3.75;;;;;;;7.80;100.00;100777.69;5036852;28;20021;-79
2024/04/08 03:23:26;;;;;;;7.72;4.63;;;;;;;7.96;100.00;100792.63;5032719;28;20045;-78
2024/04/08 03:26:01;;;;;;;8.82;4.82;;;;;;;7.88;100.00;100801.50;5052088;28;20025;-80
2024/04/08 03:28:27;;;;;;;7.88;4.72;;;;;;;7.19;100.00;100757.41;5052377;28;20489;-78
2024/04/08 03:30:54;;;;;;;7.88;4.55;;;;;;;7.54;100.00;100772.81;5052456;28;20025;-78
2024/04/08 03:33:24;;;;;;;10.38;4.95;;;;;;;7.98;100.00;100804.72;5051934;28;20048;-78
2024/04/08 03:35:50;;;;;;;9.65;5.55;;;;;;;8.33;100.00;100796.97;5050688;28;20024;-79
2024/04/08 03:38:16;;;;;;;8.70;5.18;;;;;;;8.77;100.00;100812.03;5051893;28;20116;-79
2024/04/08 03:40:43;;;;;;;8.82;5.45;;;;;;;8.55;100.00;100781.13;5084277;28;20068;-79
2024/04/08 03:43:08;;;;;;;10.80;6.00;;;;;;;8.72;100.00;100809.09;5051226;28;20401;-79
2024/04/08 03:45:34;;;;;;;10.65;6.07;;;;;;;8.87;100.00;100808.22;5046319;28;20548;-79
2024/04/08 03:47:59;;;;;;;9.13;5.80;;;;;;;7.74;100.00;100794.34;5051883;28;20044;-79
2024/04/08 03:50:29;;;;;;;8.32;5.70;;;;;;;7.48;100.00;100819.50;5050437;28;20112;-78
2024/04/08 03:52:54;;;;;;;15.88;5.65;;;;;;;7.21;100.00;100797.84;5033997;28;20045;-79
2024/04/08 03:55:25;;;;;;;10.45;5.25;;;;;;;6.96;100.00;100743.34;5047935;28;20025;-79
2024/04/08 03:57:50;;;;;;;13.43;6.20;;;;;;;7.40;100.00;100799.16;5049557;28;20029;-79
2024/04/08 04:00:16;;;;;;;10.63;5.85;;;;;;;7.88;100.00;100828.06;5043022;28;20049;-79
2024/04/08 04:02:41;;;;;;;10.05;6.45;;;;;;;7.80;100.00;100821.00;5049900;28;20037;-78
2024/04/08 04:05:07;;;;;;;11.32;5.97;;;;;;;7.89;100.00;100792.53;5035288;28;20053;-79
2024/04/08 04:07:32;;;;;;;12.73;6.60;;;;;;;8.25;100.00;100813.03;5051268;28;20413;-79
2024/04/08 04:10:04;;;;;;;11.77;6.35;;;;;;;8.01;100.00;100811.50;5051074;28;20020;-78
2024/04/08 04:12:33;;;;;;;13.90;8.02;;;;;;;8.29;100.00;100819.63;5051613;28;20087;-78
2024/04/08 04:15:00;;;;;;;12.10;6.93;;;;;;;8.45;100.00;100830.06;5051346;28;20540;-79
2024/04/08 04:17:26;;;;;;;38.70;8.60;;;;;;;8.03;100.00;100789.06;5051133;28;20416;-79
2024/04/08 04:19:51;;;;;;;12.80;6.03;;;;;;;7.78;100.00;100832.81;5050033;28;20025;-78
2024/04/08 04:22:16;;;;;;;12.77;5.43;;;;;;;7.65;100.00;100823.66;5032764;28;20068;-79
2024/04/08 04:24:42;;;;;;;7.03;4.28;;;;;;;7.56;100.00;100839.81;5043451;28;20036;-79
2024/04/08 04:27:07;;;;;;;10.90;5.25;;;;;;;7.55;100.00;100807.16;5051338;28;20033;-78
2024/04/08 04:29:33;;;;;;;11.45;5.68;;;;;;;7.55;100.00;100820.41;5051351;28;20104;-79
2024/04/08 04:31:58;;;;;;;16.98;5.30;;;;;;;7.59;100.00;100827.03;5051510;28;20410;-78
2024/04/08 04:34:24;;;;;;;14.13;5.65;;;;;;;7.64;100.00;100839.75;5051151;28;20112;-78
2024/04/08 04:36:49;;;;;;;7.78;4.78;;;;;;;7.37;100.00;100807.47;5052186;28;20409;-79
2024/04/08 04:39:14;;;;;;;8.43;5.00;;;;;;;7.56;100.00;100845.97;5051423;28;20036;-79
2024/04/08 04:41:40;;;;;;;9.77;5.20;;;;;;;7.31;100.00;100816.16;5049719;28;20021;-79
2024/04/08 04:44:05;;;;;;;9.60;5.95;;;;;;;7.62;100.00;100845.25;5051145;28;20047;-79
2024/04/08 04:46:30;;;;;;;7.70;5.32;;;;;;;7.44;100.00;100828.84;5050319;28;20024;-79
2024/04/08 04:48:56;;;;;;;9.27;5.78;;;;;;;7.79;100.00;100839.78;5049274;28;20409;-79
2024/04/08 04:51:21;;;;;;;11.45;6.25;;;;;;;8.16;100.00;100835.41;5050780;28;20082;-79
2024/04/08 04:53:46;;;;;;;11.13;5.95;;;;;;;8.08;100.00;100819.56;5049293;28;20406;-79
2024/04/08 04:56:12;;;;;;;11.48;6.70;;;;;;;8.54;100.00;100851.22;5048741;28;20031;-79
2024/04/08 04:58:37;;;;;;;12.63;7.32;;;;;;;8.64;100.00;100838.47;5050283;28;20025;-78
2024/04/08 05:01:03;;;;;;;11.15;6.95;;;;;;;8.43;100.00;100832.09;5045972;28;20021;-79
2024/04/08 05:03:28;;;;;;;11.30;8.15;;;;;;;8.62;100.00;100854.63;5049507;28;20112;-79
2024/04/08 05:05:55;;;;;;;11.13;8.43;;;;;;;8.82;100.00;100824.75;5039566;28;20386;-79
2024/04/08 05:08:21;;;;;;;16.63;8.90;;;;;;;8.93;100.00;100810.13;5049393;28;20162;-78
2024/04/08 05:10:46;;;;;;;14.55;9.30;;;;;;;9.44;100.00;100847.25;5050018;28;20497;-80
2024/04/08 05:13:14;;;;;;;13.68;9.77;;;;;;;9.70;100.00;100859.13;5050312;28;20024;-80
2024/04/08 05:15:40;;;;;;;16.40;10.57;;;;;;;9.93;100.00;100862.38;5049475;28;20033;-80
2024/04/08 05:18:05;;;;;;;15.18;10.40;;;;;;;10.10;100.00;100852.22;5049641;28;20077;-80
2024/04/08 05:20:31;;;;;;;14.23;10.05;;;;;;;9.99;100.00;100837.63;5049676;28;20025;-80
2024/04/08 05:22:56;;;;;;;15.38;10.05;;;;;;;10.26;100.00;100843.09;5049791;28;20032;-79
2024/04/08 05:25:21;;;;;;;16.77;10.93;;;;;;;10.34;100.00;100850.94;5049871;28;20436;-81
2024/04/08 05:27:48;;;;;;;15.68;10.65;;;;;;;10.60;100.00;100836.06;5049665;28;20028;-80
2024/04/08 05:30:13;;;;;;;13.55;10.23;;;;;;;10.92;100.00;100861.19;5049789;28;20521;-80
2024/04/08 05:32:38;;;;;;;16.30;10.30;;;;;;;10.95;100.00;100830.63;5044875;28;20051;-79
2024/04/08 05:35:04;;;;;;;16.52;10.75;;;;;;;11.19;100.00;100838.03;5048223;28;20515;-79
2024/04/08 05:37:29;;;;;;;12.82;9.77;;;;;;;11.13;100.00;100832.69;5048561;28;20021;-80
2024/04/08 05:39:55;;;;;;;13.77;10.90;;;;;;;11.34;100.00;100829.84;5044453;28;20025;-79
2024/04/08 05:42:20;;;;;;;13.35;9.57;;;;;;;11.25;100.00;100820.41;5030376;28;20060;-79
2024/04/08 05:44:46;;;;;;;13.82;9.65;;;;;;;11.60;100.00;100855.72;5030268;28;20030;-79
2024/04/08 05:47:11;;;;;;;14.98;9.65;;;;;;;11.64;100.00;100837.44;5043117;28;20017;-79
2024/04/08 05:49:36;;;;;;;13.23;9.38;;;;;;;11.88;100.00;100860.03;5050248;28;20505;-79
2024/04/08 05:52:02;;;;;;;14.15;9.75;;;;;;;11.90;100.00;100854.50;5048500;28;20057;-80
2024/04/08 05:54:27;;;;;;;15.57;9.88;;;;;;;12.12;100.00;100866.59;5049903;28;20021;-80
2024/04/08 05:56:53;;;;;;;12.35;9.25;;;;;;;12.19;100.00;100863.91;5050009;28;20130;-80
2024/04/08 05:59:18;;;;;;;13.38;9.55;;;;;;;12.20;100.00;100852.19;5048088;28;20017;-80
2024/04/08 06:01:43;;;;;;;15.70;10.05;;;;;;;12.23;100.00;100860.59;5043356;28;20417;-79
2024/04/08 06:04:10;;;;;;;14.88;9.32;;;;;;;12.38;100.00;100849.66;5049064;28;20102;-80
2024/04/08 06:06:36;;;;;;;12.07;9.13;;;;;;;12.22;100.00;100834.09;5050990;28;20021;-79
2024/04/08 06:09:08;;;;;;;13.88;9.85;;;;;;;12.44;100.00;100856.84;5051768;28;20037;-79
2024/04/08 06:11:33;;;;;;;12.20;8.88;;;;;;;12.70;100.00;100860.41;5049764;28;20509;-79
2024/04/08 06:13:59;;;;;;;12.77;9.40;;;;;;;12.81;100.00;100875.81;5049295;28;20029;-81
2024/04/08 06:16:25;;;;;;;13.50;10.63;;;;;;;12.71;100.00;100851.38;5034981;28;20075;-79
2024/04/08 06:18:50;;;;;;;13.25;9.30;;;;;;;13.21;100.00;100883.59;5053759;28;20040;-80
2024/04/08 06:21:15;;;;;;;11.63;8.95;;;;;;;13.32;100.00;100865.22;5053301;28;20025;-79
2024/04/08 06:23:41;;;;;;;13.88;7.78;;;;;;;13.33;100.00;100858.84;5050986;28;20123;-79
2024/04/08 06:26:06;;;;;;;13.18;9.32;;;;;;;13.65;100.00;100879.19;5033485;28;20108;-79
2024/04/08 06:28:32;;;;;;;10.15;6.57;;;;;;;13.79;100.00;100890.63;5051925;28;20040;-79
2024/04/08 06:30:57;;;;;;;9.95;7.07;;;;;;;13.76;100.00;100887.56;5053553;28;20083;-79
2024/04/08 06:33:23;;;;;;;8.07;5.90;;;;;;;13.96;100.00;100882.84;5053332;28;20032;-79
2024/04/08 06:35:48;;;;;;;10.85;6.45;;;;;;;13.95;100.00;100888.41;5053631;28;20444;-79
2024/04/08 06:38:14;;;;;;;8.70;6.47;;;;;;;14.29;100.00;100899.63;5052678;28;20037;-79
2024/04/08 06:40:43;;;;;;;9.13;6.55;;;;;;;14.30;100.00;100902.06;5052244;28;20481;-80
2024/04/08 06:43:09;;;;;;;8.25;6.18;;;;;;;14.41;100.00;100892.47;5053194;28;20039;-79
2024/04/08 06:45:35;;;;;;;10.95;6.28;;;;;;;14.67;100.00;100888.69;5053572;28;20021;-79
2024/04/08 06:48:01;;;;;;;8.35;5.70;;;;;;;15.05;100.00;100898.31;5051702;28;20037;-78
2024/04/08 06:50:26;;;;;;;10.15;6.78;;;;;;;14.98;100.00;100908.34;5053102;28;20029;-78
2024/04/08 06:52:51;;;;;;;8.15;5.80;;;;;;;15.22;99.92;100893.94;5052878;28;20067;-80
2024/04/08 06:55:18;;;;;;;9.85;6.53;;;;;;;15.39;100.00;100899.47;5052910;28;20499;-78
2024/04/08 06:57:43;;;;;;;8.07;5.75;;;;;;;15.48;96.13;100894.56;5048644;28;20086;-79
2024/04/08 07:00:10;;;;;;;7.32;5.10;;;;;;;15.65;92.65;100903.63;5052889;28;20037;-78
2024/04/08 07:02:36;;;;;;;8.18;5.68;;;;;;;15.79;93.59;100903.41;5052599;28;20497;-79
2024/04/08 07:05:02;;;;;;;7.60;5.38;;;;;;;15.59;90.72;100885.72;5052907;28;20037;-79
2024/04/08 07:07:27;;;;;;;8.55;5.25;;;;;;;15.65;91.46;100887.47;5049787;28;20024;-79
2024/04/08 07:09:53;;;;;;;8.48;5.10;;;;;;;15.63;91.20;100903.03;5051065;28;20488;-79
2024/04/08 07:12:18;;;;;;;6.95;5.25;;;;;;;15.93;87.84;100883.28;5052772;28;20055;-80
2024/04/08 07:14:44;;;;;;;7.82;5.25;;;;;;;15.87;87.52;100895.00;5051412;28;20071;-79
2024/04/08 07:17:09;;;;;;;8.35;5.30;;;;;;;16.26;85.85;100904.22;5052123;28;20112;-79
2024/04/08 07:19:35;;;;;;;8.20;5.60;;;;;;;16.29;87.59;100889.47;5052930;28;20175;-80
2024/04/08 07:22:00;;;;;;;8.40;5.53;;;;;;;16.08;89.31;100858.63;5051847;28;20421;-79
2024/04/08 07:24:26;;;;;;;10.90;5.32;;;;;;;16.42;85.54;100902.66;5052701;28;20063;-79
2024/04/08 07:26:51;;;;;;;6.97;5.00;;;;;;;16.72;83.56;100896.28;5052585;28;20032;-79
2024/04/08 07:29:17;;;;;;;8.45;4.97;;;;;;;16.46;85.96;100881.47;5064389;28;20107;-79
2024/04/08 07:31:42;;;;;;;8.05;4.90;;;;;;;16.85;85.43;100903.28;5072446;28;20409;-79
2024/04/08 07:34:08;;;;;;;9.25;5.13;;;;;;;16.75;83.01;100874.22;5070805;28;20029;-79
2024/04/08 07:36:33;;;;;;;6.57;4.40;;;;;;;16.78;80.42;100900.72;5072348;28;20025;-79
2024/04/08 07:38:59;;;;;;;6.40;4.07;;;;;;;16.86;80.93;100904.94;5057046;28;20029;-79
2024/04/08 07:41:24;;;;;;;6.95;3.92;;;;;;;17.13;81.15;100909.75;5052327;28;20025;-79
2024/04/08 07:43:49;;;;;;;8.90;4.85;;;;;;;17.49;78.04;100900.41;5052203;28;20106;-79
2024/04/08 07:46:15;;;;;;;7.22;4.47;;;;;;;17.61;77.03;100884.97;5050953;28;20100;-80
2024/04/08 07:48:40;;;;;;;6.95;3.30;;;;;;;17.77;75.72;100885.19;5051754;28;20025;-79
2024/04/08 07:51:05;;;;;;;6.15;3.50;;;;;;;17.86;74.42;100895.34;5051918;28;20052;-79
2024/04/08 07:53:32;;;;;;;7.18;3.85;;;;;;;17.99;72.88;100894.19;5051559;28;20128;-79
2024/04/08 07:55:59;;;;;;;6.20;3.20;;;;;;;18.10;72.20;100900.53;5051864;28;20025;-80
2024/04/08 07:58:26;;;;;;;6.38;3.10;;;;;;;17.83;72.35;100884.22;5051213;28;20024;-79
2024/04/08 08:01:02;;;;;;;4.68;2.65;;;;;;;18.28;70.58;100915.63;5051606;28;20056;-79
2024/04/08 08:03:27;;;;;;;7.25;2.72;;;;;;;17.81;73.15;100903.31;5051894;28;20037;-79
2024/04/08 08:05:53;;;;;;;6.50;3.28;;;;;;;18.33;69.86;100886.00;5051642;28;20087;-79
2024/04/08 08:08:19;;;;;;;7.60;3.75;;;;;;;18.54;69.03;100905.16;5053994;28;20070;-79
2024/04/08 08:10:45;;;;;;;5.70;2.53;;;;;;;18.77;67.80;100910.31;5051592;28;20025;-79
2024/04/08 08:13:10;;;;;;;4.45;2.60;;;;;;;18.72;67.51;100885.94;5051056;28;20444;-80
2024/04/08 08:15:36;;;;;;;6.65;2.75;;;;;;;19.09;63.32;100871.75;5051574;28;20029;-80
2024/04/08 08:18:01;;;;;;;7.38;3.13;;;;;;;19.59;62.55;100880.56;5050717;28;20025;-79
2024/04/08 08:20:27;;;;;;;6.55;2.10;;;;;;;19.32;62.51;100894.13;5051349;28;20029;-80
2024/04/08 08:22:56;;;;;;;3.25;1.90;;;;;;;19.33;59.60;100887.63;5049992;28;20032;-79
2024/04/08 08:25:23;;;;;;;3.50;1.77;;;;;;;19.12;59.68;100887.44;5051414;28;20181;-79
2024/04/08 08:27:48;;;;;;;5.03;2.25;;;;;;;19.52;61.21;100882.69;5051168;28;20056;-79
2024/04/08 08:30:13;;;;;;;2.80;1.90;;;;;;;19.59;56.90;100894.88;5056735;28;20108;-80
2024/04/08 08:32:39;;;;;;;3.85;2.05;;;;;;;19.75;55.11;100897.75;5049878;28;20133;-80
2024/04/08 08:35:04;;;;;;;3.20;1.70;;;;;;;19.68;56.00;100884.41;5051102;28;20082;-79
2024/04/08 08:37:30;;;;;;;2.55;1.50;;;;;;;20.06;54.07;100883.34;5049958;28;20025;-81
2024/04/08 08:39:55;;;;;;;3.10;1.88;;;;;;;20.14;53.05;100873.09;5050709;28;20086;-79
2024/04/08 08:42:21;;;;;;;5.60;2.20;;;;;;;20.11;54.83;100879.84;5051228;28;20029;-79
2024/04/08 08:44:54;;;;;;;4.20;2.63;;;;;;;20.20;55.53;100858.50;5049450;28;20085;-80
2024/04/08 08:47:23;;;;;;;4.25;2.00;;;;;;;20.46;53.55;100873.78;5051115;28;20029;-80
2024/04/08 08:49:54;;;;;;;3.67;2.20;;;;;;;20.35;53.44;100869.41;5050158;28;20512;-80
2024/04/08 08:52:23;;;;;;;4.80;2.50;;;;;;;20.19;56.53;100881.25;5050493;28;20051;-80
2024/04/08 08:54:51;;;;;;;3.08;1.90;;;;;;;20.18;51.30;100860.66;5050635;28;20447;-80
2024/04/08 08:57:17;;;;;;;7.00;2.10;;;;;;;20.66;51.51;100889.31;5050856;28;20029;-80
2024/04/08 08:59:44;;;;;;;2.88;1.70;;;;;;;20.72;49.95;100879.31;5055419;28;20497;-80
2024/04/08 09:02:13;;;;;;;3.78;2.10;;;;;;;20.93;46.40;100890.22;5050698;28;20068;-80
2024/04/08 09:04:40;;;;;;;2.45;1.60;;;;;;;20.35;45.66;100896.50;5050540;28;20779;-80
2024/04/08 09:07:06;;;;;;;4.20;1.77;;;;;;;20.66;46.39;100854.09;5050358;28;20078;-80
2024/04/08 09:09:31;;;;;;;3.42;1.40;;;;;;;20.84;45.38;100892.63;5047215;28;20021;-81
2024/04/08 09:11:57;;;;;;;2.47;1.30;;;;;;;21.16;43.66;100883.47;5050435;28;20025;-82
2024/04/08 09:14:22;;;;;;;2.63;1.25;;;;;;;20.83;44.67;100859.28;5050444;28;20040;-81
2024/04/08 09:16:49;;;;;;;3.92;1.60;;;;;;;20.97;44.91;100866.91;5050203;28;20021;-80
2024/04/08 09:19:15;;;;;;;4.30;1.35;;;;;;;21.07;44.77;100856.06;5052593;28;20467;-81
2024/04/08 09:21:42;;;;;;;3.08;1.30;;;;;;;21.13;43.48;100867.75;5050243;28;20111;-81
2024/04/08 09:24:07;;;;;;;1.60;1.20;;;;;;;21.30;44.94;100856.63;5050601;28;20085;-81
2024/04/08 09:26:34;;;;;;;3.13;1.65;;;;;;;21.75;43.38;100874.00;5050349;28;20024;-81
2024/04/08 09:29:00;;;;;;;4.20;2.05;;;;;;;21.54;42.70;100855.03;5052854;28;20021;-80
2024/04/08 09:31:25;;;;;;;1.88;1.10;;;;;;;21.60;41.16;100862.06;5050250;28;20029;-80
2024/04/08 09:33:51;;;;;;;2.90;1.20;;;;;;;22.10;40.25;100872.28;5050981;28;20618;-79
2024/04/08 09:36:17;;;;;;;3.33;1.35;;;;;;;21.96;39.64;100864.69;5049509;28;20016;-77
2024/04/08 09:38:45;;;;;;;2.83;1.20;;;;;;;21.61;42.07;100869.13;5048827;28;20449;-79
2024/04/08 09:41:13;;;;;;;2.35;1.30;;;;;;;22.39;40.30;100861.59;5050170;28;20025;-79
2024/04/08 09:43:42;;;;;;;4.18;1.35;;;;;;;22.77;40.68;100857.34;5049438;28;20108;-79
2024/04/08 09:46:10;;;;;;;1.67;1.10;;;;;;;22.55;39.73;100859.63;5049972;28;20123;-80
2024/04/08 09:48:37;;;;;;;2.92;1.20;;;;;;;22.95;38.93;100855.06;5050053;28;20036;-80
2024/04/08 09:51:06;;;;;;;3.00;1.38;;;;;;;23.45;37.94;100855.78;5049831;28;20029;-80
2024/04/08 09:53:35;;;;;;;3.63;1.10;;;;;;;23.77;35.07;100868.03;5042586;28;20041;-80
2024/04/08 09:58:01;;;;;;;3.53;1.00;;;;;;;23.02;37.24;100836.53;5421742;26;20728;-79
2024/04/08 10:00:34;;;;;;;3.33;1.20;;;;;;;23.59;35.32;100834.13;5409025;26;20085;-79
2024/04/08 10:03:04;;;;;;;3.30;1.25;;;;;;;23.76;34.72;100850.03;5397291;26;20011;-79
2024/04/08 10:05:30;;;;;;;4.45;1.23;;;;;;;23.43;35.20;100826.09;5397014;26;20015;-79
2024/04/08 10:07:56;;;;;;;2.85;1.08;;;;;;;22.81;36.18;100823.03;5396829;26;20000;-78
2024/04/08 10:10:22;;;;;;;2.28;0.95;;;;;;;23.30;37.99;100820.53;5396052;26;20004;-79
2024/04/08 10:12:49;;;;;;;2.63;1.10;;;;;;;22.83;38.46;100834.47;5397047;26;20040;-79
2024/04/08 10:15:16;;;;;;;1.77;0.85;;;;;;;23.85;36.01;100827.34;5397119;26;20040;-79
2024/04/08 10:17:43;;;;;;;2.20;1.10;;;;;;;23.89;34.47;100821.34;5396848;26;20411;-79
2024/04/08 10:20:14;;;;;;;1.75;1.05;;;;;;;24.14;35.13;100822.94;5396527;26;20008;-79
2024/04/08 10:22:40;;;;;;;1.60;1.15;;;;;;;23.78;35.93;100801.56;5396847;26;20095;-78
2024/04/08 10:25:33;;;;;;;2.47;1.20;;;;;;;24.61;35.78;100824.00;5396535;26;20015;-79
2024/04/08 10:28:02;;;;;;;2.28;0.98;;;;;;;24.47;33.41;100819.22;5380437;26;20037;-77
2024/04/08 10:30:28;;;;;;;1.75;1.00;;;;;;;24.18;33.85;100799.47;5401039;26;20448;-79
2024/04/08 10:32:53;;;;;;;2.97;1.20;;;;;;;24.50;33.54;100795.22;5396560;26;20008;-79
2024/04/08 10:35:19;;;;;;;3.55;1.00;;;;;;;24.34;33.53;100800.06;5410552;26;20015;-79
2024/04/08 10:37:44;;;;;;;2.30;1.05;;;;;;;24.69;34.14;100801.50;5412502;26;20010;-79
2024/04/08 10:40:11;;;;;;;2.65;1.10;;;;;;;25.32;32.80;100796.72;5401307;26;20566;-80
2024/04/08 10:42:36;;;;;;;4.53;1.17;;;;;;;25.26;33.20;100804.97;5396229;26;20018;-78
2024/04/08 10:45:02;;;;;;;1.90;1.10;;;;;;;24.44;31.77;100784.38;5418681;26;20007;-80
2024/04/08 10:47:27;;;;;;;1.85;1.00;;;;;;;24.76;32.90;100799.19;5408838;26;20036;-80
2024/04/08 10:49:53;;;;;;;1.60;0.90;;;;;;;24.98;31.79;100787.66;5395515;26;19996;-78
2024/04/08 10:52:18;;;;;;;1.60;0.90;;;;;;;24.61;31.48;100783.88;5395795;26;20010;-78
2024/04/08 10:54:44;;;;;;;2.25;0.82;;;;;;;25.20;28.46;100772.59;5401252;26;20083;-79
2024/04/08 10:57:09;;;;;;;2.35;0.90;;;;;;;25.49;29.09;100779.75;5412473;26;20014;-79
2024/04/08 10:59:35;;;;;;;1.80;0.77;;;;;;;24.89;28.20;100766.81;5404281;26;19996;-78
2024/04/08 11:02:00;;;;;;;2.28;0.70;;;;;;;24.91;28.26;100764.59;5406233;26;20382;-79
2024/04/08 11:04:27;;;;;;;1.13;0.80;;;;;;;25.99;28.32;100761.56;5427539;26;20030;-79
2024/04/08 11:06:53;;;;;;;1.83;0.80;;;;;;;26.85;28.47;100755.25;5413526;26;19991;-79
2024/04/08 11:09:18;;;;;;;1.30;1.00;;;;;;;26.87;27.18;100763.16;5403724;26;20064;-80
2024/04/08 11:11:43;;;;;;;2.90;1.30;;;;;;;26.85;26.38;100748.97;5389881;26;19992;-79
2024/04/08 11:14:09;;;;;;;4.47;1.38;;;;;;;26.98;28.72;100759.03;5397027;26;20490;-79
2024/04/08 11:16:34;;;;;;;2.53;0.90;;;;;;;26.76;28.40;100753.56;5399547;26;20068;-79
2024/04/08 11:19:03;;;;;;;2.25;1.10;;;;;;;26.20;27.73;100756.44;5413606;26;20012;-78